createdAt,value
2023-03-20T00:02:07.683Z,5.80
2023-03-20T00:04:37.161Z,5.80
2023-03-20T00:07:05.131Z,5.70
2023-03-20T00:09:33.856Z,5.70
2023-03-20T00:12:02.156Z,5.70
2023-03-20T00:14:30.328Z,5.70
2023-03-20T00:16:58.587Z,5.60
2023-03-20T00:19:29.362Z,5.60
2023-03-20T00:21:59.771Z,5.60
2023-03-20T00:24:27.824Z,5.50
2023-03-20T00:26:56.013Z,5.50
2023-03-20T00:29:26.160Z,5.50
2023-03-20T00:31:55.119Z,5.50
2023-03-20T00:34:25.795Z,5.50
2023-03-20T00:36:55.016Z,5.50
2023-03-20T00:39:24.707Z,5.60
2023-03-20T00:41:56.035Z,5.60
2023-03-20T00:44:27.307Z,5.60
2023-03-20T00:46:57.578Z,5.60
2023-03-20T00:49:28.948Z,5.60
2023-03-20T00:51:58.054Z,5.60
2023-03-20T00:54:27.955Z,5.60
2023-03-20T00:56:59.296Z,5.60
2023-03-20T00:59:31.960Z,5.70
2023-03-20T01:02:00.541Z,5.60
2023-03-20T01:04:36.788Z,5.60
2023-03-20T01:07:08.422Z,5.70
2023-03-20T01:09:37.926Z,5.70
2023-03-20T01:12:07.842Z,5.60
2023-03-20T01:14:36.488Z,5.60
2023-03-20T01:17:04.803Z,5.60
2023-03-20T01:19:32.861Z,5.60
2023-03-20T01:22:02.779Z,5.60
2023-03-20T01:24:30.927Z,5.50
2023-03-20T01:27:03.643Z,5.50
2023-03-20T01:29:33.137Z,5.50
2023-03-20T01:32:01.157Z,5.50
2023-03-20T01:34:29.258Z,5.50
2023-03-20T01:36:59.218Z,5.40
2023-03-20T01:39:33.590Z,5.40
2023-03-20T01:42:05.751Z,5.40
2023-03-20T01:44:36.417Z,5.40
2023-03-20T01:47:13.210Z,5.50
2023-03-20T01:50:22.254Z,5.40
2023-03-20T01:52:53.317Z,5.40
2023-03-20T01:55:22.900Z,5.50
2023-03-20T01:57:53.608Z,5.50
2023-03-20T02:00:23.893Z,5.50
2023-03-20T02:02:52.083Z,5.50
2023-03-20T02:05:23.020Z,5.50
2023-03-20T02:08:03.020Z,5.50
2023-03-20T02:10:32.056Z,5.50
2023-03-20T02:13:04.169Z,5.60
2023-03-20T02:15:33.269Z,5.60
2023-03-20T02:18:01.673Z,5.60
2023-03-20T02:20:46.988Z,5.60
2023-03-20T02:23:56.317Z,5.70
2023-03-20T02:26:40.118Z,5.70
2023-03-20T02:29:30.358Z,5.70
2023-03-20T02:32:33.959Z,5.70
2023-03-20T02:35:35.946Z,5.60
2023-03-20T02:38:27.245Z,5.70
2023-03-20T02:41:03.333Z,5.70
2023-03-20T02:43:42.328Z,5.70
2023-03-20T02:46:19.747Z,5.70
2023-03-20T02:48:55.625Z,5.70
2023-03-20T02:51:33.417Z,5.70
2023-03-20T02:54:09.071Z,5.70
2023-03-20T02:56:44.801Z,5.80
2023-03-20T02:59:21.801Z,5.80
2023-03-20T03:01:55.595Z,5.80
2023-03-20T03:04:27.392Z,5.80
2023-03-20T03:06:59.318Z,5.70
2023-03-20T03:09:32.922Z,5.70
2023-03-20T03:12:05.841Z,5.70
2023-03-20T03:14:38.795Z,5.70
2023-03-20T03:17:09.583Z,5.60
2023-03-20T03:19:39.819Z,5.60
2023-03-20T03:22:08.748Z,5.50
2023-03-20T03:24:41.896Z,5.50
2023-03-20T03:27:18.518Z,5.40
2023-03-20T03:29:51.484Z,5.40
2023-03-20T03:32:30.448Z,5.30
2023-03-20T03:35:00.719Z,5.30
2023-03-20T03:37:40.849Z,5.20
2023-03-20T03:40:21.477Z,5.20
2023-03-20T03:42:57.095Z,5.10
2023-03-20T03:45:31.506Z,5.00
2023-03-20T03:48:05.817Z,4.90
2023-03-20T03:50:38.785Z,4.90
2023-03-20T03:53:11.953Z,4.80
2023-03-20T03:55:44.930Z,4.70
2023-03-20T03:58:16.677Z,4.60
2023-03-20T04:00:47.959Z,4.60
2023-03-20T04:03:17.254Z,4.70
2023-03-20T04:05:47.390Z,4.60
2023-03-20T04:08:16.280Z,4.50
2023-03-20T04:10:45.999Z,4.50
2023-03-20T04:13:14.078Z,4.50
2023-03-20T04:15:42.431Z,4.50
2023-03-20T04:18:17.242Z,4.50
2023-03-20T04:20:45.683Z,4.50
2023-03-20T04:23:14.037Z,4.50
2023-03-20T04:25:42.611Z,4.50
2023-03-20T04:28:16.201Z,4.40
2023-03-20T04:30:48.174Z,4.40
2023-03-20T04:33:16.463Z,4.30
2023-03-20T04:35:44.662Z,4.20
2023-03-20T04:38:12.892Z,4.10
2023-03-20T04:40:41.255Z,4.00
2023-03-20T04:43:09.315Z,3.90
2023-03-20T04:45:39.495Z,3.90
2023-03-20T04:48:08.362Z,3.80
2023-03-20T04:50:36.481Z,3.80
2023-03-20T04:53:04.518Z,3.80
2023-03-20T04:55:32.678Z,3.80
2023-03-20T04:58:00.912Z,3.80
2023-03-20T05:00:28.976Z,3.70
2023-03-20T05:02:58.467Z,3.60
2023-03-20T05:05:27.057Z,3.60
2023-03-20T05:07:55.303Z,3.60
2023-03-20T05:10:23.425Z,3.60
2023-03-20T05:12:51.582Z,3.50
2023-03-20T05:15:19.721Z,3.40
2023-03-20T05:17:50.531Z,3.40
2023-03-20T05:20:21.561Z,3.30
2023-03-20T05:22:51.376Z,3.30
2023-03-20T05:25:19.550Z,3.30
2023-03-20T05:27:48.067Z,3.30
2023-03-20T05:30:16.868Z,3.30
2023-03-20T05:32:44.970Z,3.30
2023-03-20T05:35:13.446Z,3.20
2023-03-20T05:37:42.905Z,3.20
2023-03-20T05:40:13.581Z,3.10
2023-03-20T05:42:41.612Z,3.10
2023-03-20T05:45:10.626Z,3.00
2023-03-20T05:47:38.699Z,3.00
2023-03-20T05:50:07.437Z,3.00
2023-03-20T05:52:35.711Z,3.00
2023-03-20T05:55:05.791Z,3.10
2023-03-20T05:57:33.821Z,3.10
2023-03-20T06:00:01.880Z,3.10
2023-03-20T06:02:29.927Z,3.10
2023-03-20T06:04:58.074Z,3.10
2023-03-20T06:07:26.172Z,3.10
2023-03-20T06:09:54.250Z,3.20
2023-03-20T06:12:24.044Z,3.30
2023-03-20T06:14:52.087Z,3.40
2023-03-20T06:17:20.304Z,3.50
2023-03-20T06:19:48.417Z,3.70
2023-03-20T06:22:16.496Z,3.80
2023-03-20T06:24:44.665Z,4.00
2023-03-20T06:27:12.800Z,4.10
2023-03-20T06:29:42.201Z,4.20
2023-03-20T06:32:12.296Z,4.40
2023-03-20T06:34:40.364Z,4.50
2023-03-20T06:37:08.453Z,4.60
2023-03-20T06:39:36.844Z,4.80
2023-03-20T06:42:05.101Z,5.00
2023-03-20T06:44:33.152Z,5.10
2023-03-20T06:47:02.596Z,5.30
2023-03-20T06:49:30.701Z,5.50
2023-03-20T06:51:59.372Z,5.80
2023-03-20T06:54:28.049Z,6.00
2023-03-20T06:56:56.139Z,6.10
2023-03-20T06:59:24.582Z,6.30
2023-03-20T07:01:52.726Z,6.50
2023-03-20T07:04:22.342Z,6.80
2023-03-20T07:06:50.449Z,7.10
2023-03-20T07:09:18.638Z,7.30
2023-03-20T07:11:46.902Z,7.40
2023-03-20T07:14:15.005Z,7.60
2023-03-20T07:16:43.090Z,7.80
2023-03-20T07:19:13.137Z,8.00
2023-03-20T07:21:42.661Z,8.20
2023-03-20T07:24:10.519Z,8.40
2023-03-20T07:26:38.659Z,8.60
2023-03-20T07:29:06.746Z,8.80
2023-03-20T07:31:34.864Z,9.00
2023-03-20T07:34:02.971Z,9.10
2023-03-20T07:36:31.014Z,9.40
2023-03-20T07:39:00.711Z,9.70
2023-03-20T07:41:28.812Z,9.90
2023-03-20T07:43:56.862Z,10.10
2023-03-20T07:46:25.465Z,10.40
2023-03-20T07:48:53.788Z,10.60
2023-03-20T07:51:21.839Z,10.90
2023-03-20T07:53:49.906Z,11.20
2023-03-20T07:56:19.335Z,11.40
2023-03-20T07:58:47.195Z,11.70
2023-03-20T08:01:15.294Z,11.90
2023-03-20T08:03:43.577Z,12.10
2023-03-20T08:06:11.774Z,12.30
2023-03-20T08:08:40.549Z,12.50
2023-03-20T08:11:08.818Z,12.70
2023-03-20T08:13:38.282Z,13.00
2023-03-20T08:16:06.732Z,13.10
2023-03-20T08:18:34.910Z,13.30
2023-03-20T08:21:03.065Z,13.50
2023-03-20T08:23:31.217Z,13.70
2023-03-20T08:25:59.279Z,13.90
2023-03-20T08:28:45.954Z,13.90
2023-03-20T08:31:17.717Z,13.80
2023-03-20T08:33:46.386Z,13.80
2023-03-20T08:36:15.935Z,14.10
2023-03-20T08:38:44.506Z,14.30
2023-03-20T08:41:12.610Z,14.40
2023-03-20T08:43:41.056Z,14.50
2023-03-20T08:46:09.794Z,14.60
2023-03-20T08:48:39.354Z,14.80
2023-03-20T08:51:07.500Z,15.00
2023-03-20T08:53:35.603Z,15.00
2023-03-20T08:56:03.674Z,15.20
2023-03-20T08:58:31.792Z,15.40
2023-03-20T09:01:05.342Z,15.60
2023-03-20T09:03:33.441Z,15.60
2023-03-20T09:06:02.904Z,15.80
2023-03-20T09:08:32.097Z,16.20
2023-03-20T09:11:00.566Z,16.60
2023-03-20T09:13:28.630Z,16.90
2023-03-20T09:15:58.185Z,17.10
2023-03-20T09:18:26.987Z,17.00
2023-03-20T09:20:56.491Z,16.60
2023-03-20T09:23:26.018Z,16.60
2023-03-20T09:25:53.915Z,16.60
2023-03-20T09:28:21.961Z,16.70
2023-03-20T09:30:50.097Z,16.80
2023-03-20T09:33:18.756Z,16.90
2023-03-20T09:35:46.985Z,17.00
2023-03-20T09:38:15.591Z,17.10
2023-03-20T09:40:53.209Z,17.10
2023-03-20T09:43:34.117Z,17.10
2023-03-20T09:46:13.976Z,17.00
2023-03-20T09:48:47.530Z,17.10
2023-03-20T09:51:25.188Z,17.30
2023-03-20T09:53:59.288Z,17.00
2023-03-20T09:56:31.966Z,17.00
2023-03-20T09:59:02.426Z,17.00
2023-03-20T10:01:34.182Z,16.80
2023-03-20T10:04:07.632Z,16.70
2023-03-20T10:06:36.003Z,16.60
2023-03-20T10:09:13.083Z,16.50
2023-03-20T10:11:57.165Z,16.50
2023-03-20T10:14:34.884Z,16.60
2023-03-20T10:17:14.897Z,16.80
2023-03-20T10:19:47.220Z,17.20
2023-03-20T10:22:25.303Z,17.90
2023-03-20T10:24:57.725Z,18.60
2023-03-20T10:27:32.736Z,19.10
2023-03-20T10:30:20.935Z,19.60
2023-03-20T10:32:55.654Z,19.70
2023-03-20T10:35:29.702Z,19.20
2023-03-20T10:38:11.425Z,18.60
2023-03-20T10:40:41.688Z,18.20
2023-03-20T10:43:17.809Z,17.90
2023-03-20T10:45:49.277Z,17.50
2023-03-20T10:48:22.479Z,17.80
2023-03-20T10:50:54.709Z,17.80
2023-03-20T10:53:30.404Z,17.70
2023-03-20T10:56:01.833Z,17.90
2023-03-20T10:58:35.098Z,18.40
2023-03-20T11:01:03.483Z,18.90
2023-03-20T11:03:32.869Z,18.90
2023-03-20T11:06:09.706Z,19.00
2023-03-20T11:08:41.220Z,19.40
2023-03-20T11:11:09.880Z,19.60
2023-03-20T11:13:42.555Z,20.30
2023-03-20T11:16:21.275Z,20.60
2023-03-20T11:18:50.531Z,21.00
2023-03-20T11:21:20.551Z,21.40
2023-03-20T11:23:49.404Z,21.90
2023-03-20T11:26:19.923Z,21.90
2023-03-20T11:28:53.161Z,21.90
2023-03-20T11:31:26.934Z,21.10
2023-03-20T11:34:10.985Z,20.60
2023-03-20T11:36:41.302Z,20.10
2023-03-20T11:39:15.245Z,19.80
2023-03-20T11:41:49.099Z,19.50
2023-03-20T11:44:27.959Z,19.20
2023-03-20T11:46:57.882Z,19.00
2023-03-20T11:49:29.259Z,19.00
2023-03-20T11:52:01.930Z,19.70
2023-03-20T11:54:31.281Z,20.00
2023-03-20T11:57:00.400Z,19.70
2023-03-20T11:59:34.038Z,19.40
2023-03-20T12:02:03.955Z,19.10
2023-03-20T12:04:34.656Z,18.90
2023-03-20T12:07:11.105Z,18.80
2023-03-20T12:09:43.754Z,18.50
2023-03-20T12:12:25.406Z,18.30
2023-03-20T12:15:02.224Z,18.20
2023-03-20T12:17:43.529Z,18.10
2023-03-20T12:20:29.036Z,18.10
2023-03-20T12:23:03.883Z,18.10
2023-03-20T12:25:39.372Z,19.00
2023-03-20T12:28:15.418Z,20.10
2023-03-20T12:30:55.848Z,20.30
2023-03-20T12:33:44.038Z,20.90
2023-03-20T12:36:16.566Z,21.40
2023-03-20T12:38:46.432Z,22.20
2023-03-20T12:41:17.459Z,23.00
2023-03-20T12:44:01.113Z,23.40
2023-03-20T12:46:36.422Z,22.80
2023-03-20T12:49:14.073Z,22.20
2023-03-20T12:51:53.367Z,21.50
2023-03-20T12:54:28.535Z,20.90
2023-03-20T12:57:05.676Z,20.30
2023-03-20T12:59:45.906Z,19.70
2023-03-20T13:02:26.836Z,19.10
2023-03-20T13:05:03.054Z,18.70
2023-03-20T13:07:44.377Z,18.50
2023-03-20T13:10:21.724Z,18.50
2023-03-20T13:13:01.803Z,18.30
2023-03-20T13:15:42.227Z,18.10
2023-03-20T13:18:20.599Z,17.90
2023-03-20T13:20:52.813Z,17.70
2023-03-20T13:23:27.260Z,17.50
2023-03-20T13:26:11.517Z,17.20
2023-03-20T13:28:48.523Z,16.90
2023-03-20T13:31:27.085Z,16.70
2023-03-20T13:34:03.566Z,16.40
2023-03-20T13:36:50.896Z,16.20
2023-03-20T13:39:23.652Z,15.80
2023-03-20T13:41:52.156Z,15.30
2023-03-20T13:44:24.016Z,14.90
2023-03-20T13:46:55.192Z,14.60
2023-03-20T13:49:28.830Z,14.40
2023-03-20T13:52:02.437Z,14.20
2023-03-20T13:54:50.609Z,14.20
2023-03-20T13:57:27.977Z,14.00
2023-03-20T14:00:03.006Z,14.10
2023-03-20T14:02:42.004Z,14.10
2023-03-20T14:05:18.636Z,14.00
2023-03-20T14:07:49.448Z,14.10
2023-03-20T14:10:39.435Z,14.00
2023-03-20T14:13:14.454Z,13.90
2023-03-20T14:15:50.236Z,13.90
2023-03-20T14:18:22.272Z,13.90
2023-03-20T14:20:57.486Z,13.90
2023-03-20T14:23:35.556Z,13.80
2023-03-20T14:26:09.318Z,13.70
2023-03-20T14:28:54.600Z,13.60
2023-03-20T14:31:26.307Z,13.50
2023-03-20T14:34:09.362Z,13.40
2023-03-20T14:36:53.741Z,13.30
2023-03-20T14:39:46.054Z,13.30
2023-03-20T14:42:38.791Z,13.00
2023-03-20T14:45:39.709Z,12.70
2023-03-20T14:48:26.126Z,12.40
2023-03-20T14:51:10.426Z,12.10
2023-03-20T14:53:41.690Z,11.90
2023-03-20T14:56:12.552Z,11.60
2023-03-20T14:58:54.396Z,11.40
2023-03-20T15:01:54.414Z,11.20
2023-03-20T15:04:29.514Z,11.10
2023-03-20T15:07:00.517Z,11.00
2023-03-20T15:09:32.454Z,10.90
2023-03-20T15:12:04.368Z,10.80
2023-03-20T15:14:39.279Z,10.80
2023-03-20T15:17:07.334Z,10.70
2023-03-20T15:19:41.183Z,10.60
2023-03-20T15:22:17.483Z,10.60
2023-03-20T15:24:55.797Z,10.60
2023-03-20T15:27:29.439Z,10.50
2023-03-20T15:29:58.690Z,10.40
2023-03-20T15:32:26.859Z,10.40
2023-03-20T15:34:54.993Z,10.40
2023-03-20T15:37:25.488Z,10.30
2023-03-20T15:39:59.160Z,10.40
2023-03-20T15:42:28.070Z,10.40
2023-03-20T15:44:57.465Z,10.40
2023-03-20T15:47:26.796Z,10.40
2023-03-20T15:49:56.695Z,10.40
2023-03-20T15:52:31.955Z,10.40
2023-03-20T15:55:06.407Z,10.40
2023-03-20T15:57:37.382Z,10.50
2023-03-20T16:00:08.077Z,10.50
2023-03-20T16:02:38.178Z,10.50
2023-03-20T16:05:10.418Z,10.50
2023-03-20T16:07:38.600Z,10.60
2023-03-20T16:10:19.143Z,10.70
2023-03-20T16:12:50.287Z,10.80
2023-03-20T16:15:19.709Z,10.90
2023-03-20T16:17:48.628Z,11.00
2023-03-20T16:20:17.876Z,11.10
2023-03-20T16:22:47.259Z,11.20
2023-03-20T16:25:18.752Z,11.20
2023-03-20T16:27:50.423Z,11.30
2023-03-20T16:30:24.433Z,11.20
2023-03-20T16:32:59.424Z,11.20
2023-03-20T16:35:31.013Z,11.10
2023-03-20T16:38:00.741Z,11.00
2023-03-20T16:40:34.907Z,11.00
2023-03-20T16:43:12.992Z,10.90
2023-03-20T16:45:44.929Z,10.80
2023-03-20T16:48:26.070Z,10.80
2023-03-20T16:50:59.990Z,10.70
2023-03-20T16:53:32.102Z,10.60
2023-03-20T16:56:04.952Z,10.50
2023-03-20T16:58:35.127Z,10.40
2023-03-20T17:01:06.156Z,10.40
2023-03-20T17:03:38.109Z,10.30
2023-03-20T17:06:10.878Z,10.10
2023-03-20T17:08:43.238Z,10.10
2023-03-20T17:11:15.078Z,10.00
2023-03-20T17:13:43.942Z,9.90
2023-03-20T17:16:16.975Z,9.80
2023-03-20T17:18:46.796Z,9.80
2023-03-20T17:21:15.170Z,9.80
2023-03-20T17:23:43.237Z,9.80
2023-03-20T17:26:14.023Z,9.70
2023-03-20T17:28:42.512Z,9.70
2023-03-20T17:31:13.999Z,9.70
2023-03-20T17:33:42.116Z,9.70
2023-03-20T17:36:16.917Z,9.70
2023-03-20T17:38:45.019Z,9.60
2023-03-20T17:41:16.335Z,9.60
2023-03-20T17:43:44.753Z,9.50
2023-03-20T17:46:19.029Z,9.50
2023-03-20T17:48:47.851Z,9.50
2023-03-20T17:51:15.971Z,9.40
2023-03-20T17:53:44.061Z,9.40
2023-03-20T17:56:16.434Z,9.30
2023-03-20T17:58:45.672Z,9.30
2023-03-20T18:01:14.274Z,9.20
2023-03-20T18:03:42.532Z,9.10
2023-03-20T18:06:17.055Z,9.10
2023-03-20T18:08:45.416Z,9.00
2023-03-20T18:11:14.854Z,8.90
2023-03-20T18:13:43.295Z,8.90
2023-03-20T18:16:17.590Z,8.90
2023-03-20T18:18:46.143Z,8.90
2023-03-20T18:21:16.675Z,8.80
2023-03-20T18:23:44.931Z,8.80
2023-03-20T18:26:20.593Z,8.80
2023-03-20T18:28:49.013Z,8.80
2023-03-20T18:31:18.938Z,8.70
2023-03-20T18:33:48.511Z,8.60
2023-03-20T18:36:18.107Z,8.60
2023-03-20T18:38:45.958Z,8.60
2023-03-20T18:41:14.059Z,8.60
2023-03-20T18:43:44.660Z,8.50
2023-03-20T18:46:15.195Z,8.50
2023-03-20T18:48:44.195Z,8.40
2023-03-20T18:51:12.652Z,8.40
2023-03-20T18:53:41.695Z,8.30
2023-03-20T18:56:15.400Z,8.20
2023-03-20T18:58:45.651Z,8.10
2023-03-20T19:01:15.547Z,8.00
2023-03-20T19:03:44.705Z,8.00
2023-03-20T19:06:15.522Z,7.90
2023-03-20T19:08:44.353Z,7.80
2023-03-20T19:11:17.845Z,7.80
2023-03-20T19:13:51.010Z,7.70
2023-03-20T19:16:25.349Z,7.70
2023-03-20T19:18:54.185Z,7.70
2023-03-20T19:21:25.984Z,7.60
2023-03-20T19:23:55.192Z,7.50
2023-03-20T19:26:25.936Z,7.50
2023-03-20T19:28:57.227Z,7.40
2023-03-20T19:31:26.435Z,7.30
2023-03-20T19:33:56.008Z,7.30
2023-03-20T19:36:26.757Z,7.30
2023-03-20T19:38:55.731Z,7.30
2023-03-20T19:41:24.138Z,7.30
2023-03-20T19:43:55.231Z,7.30
2023-03-20T19:46:39.146Z,7.30
2023-03-20T19:49:19.684Z,7.20
2023-03-20T19:51:48.439Z,7.20
2023-03-20T19:54:16.662Z,7.10
2023-03-20T19:56:44.778Z,7.10
2023-03-20T19:59:16.198Z,7.10
2023-03-20T20:01:46.898Z,7.10
2023-03-20T20:04:16.134Z,7.20
2023-03-20T20:06:47.158Z,7.20
2023-03-20T20:09:16.131Z,7.40
2023-03-20T20:11:44.256Z,7.40
2023-03-20T20:14:14.981Z,7.40
2023-03-20T20:16:45.344Z,7.40
2023-03-20T20:19:14.962Z,7.40
2023-03-20T20:24:31.474Z,7.30
2023-03-20T20:27:15.949Z,7.20
2023-03-20T20:29:46.922Z,7.20
2023-03-20T20:32:15.294Z,7.10
2023-03-20T20:40:24.742Z,7.00
2023-03-20T20:42:56.118Z,7.00
2023-03-20T20:45:26.376Z,6.90
2023-03-20T20:47:55.286Z,6.90
2023-03-20T20:50:28.319Z,6.80
2023-03-20T20:52:56.916Z,6.80
2023-03-20T20:55:25.658Z,6.70
2023-03-20T20:57:55.544Z,6.70
2023-03-20T21:00:37.134Z,6.70
2023-03-20T21:03:09.596Z,6.70
2023-03-20T21:05:42.861Z,6.60
2023-03-20T21:08:11.972Z,6.60
2023-03-20T21:10:40.207Z,6.60
2023-03-20T21:13:08.550Z,6.60
2023-03-20T21:15:37.329Z,6.60
2023-03-20T21:18:05.796Z,6.60
2023-03-20T21:20:34.573Z,6.60
2023-03-20T21:23:04.031Z,6.60
2023-03-20T21:25:40.017Z,6.60
2023-03-20T21:28:09.898Z,6.60
2023-03-20T21:30:44.260Z,6.70
2023-03-20T21:33:25.085Z,6.80
2023-03-20T21:35:54.411Z,6.80
2023-03-20T21:41:12.085Z,6.90
2023-03-20T21:43:40.775Z,6.90
2023-03-20T22:03:10.383Z,7.10
2023-03-20T22:06:19.482Z,7.20
2023-03-20T22:14:56.763Z,7.40
2023-03-20T22:17:51.107Z,7.40
2023-03-20T22:26:05.488Z,7.50
2023-03-20T22:31:39.024Z,7.50
2023-03-20T22:37:30.142Z,7.50
2023-03-20T22:40:22.623Z,7.50
2023-03-20T22:45:04.022Z,7.40
2023-03-20T22:47:32.623Z,7.40
2023-03-20T22:50:00.714Z,7.40
2023-03-20T22:52:42.030Z,7.40
2023-03-20T22:55:13.961Z,7.40
2023-03-20T22:57:52.971Z,7.30
2023-03-20T23:00:29.234Z,7.30
2023-03-20T23:03:06.803Z,7.30
2023-03-20T23:05:42.318Z,7.30
2023-03-20T23:08:12.793Z,7.30
2023-03-20T23:10:44.281Z,7.30
2023-03-20T23:13:12.483Z,7.30
2023-03-20T23:15:41.935Z,7.30
2023-03-20T23:18:10.611Z,7.30
2023-03-20T23:20:38.810Z,7.30
2023-03-20T23:23:06.983Z,7.30
2023-03-20T23:25:40.016Z,7.30
2023-03-20T23:28:09.320Z,7.20
2023-03-20T23:30:46.570Z,7.20
2023-03-20T23:33:17.518Z,7.20
2023-03-20T23:35:46.338Z,7.20
2023-03-20T23:38:14.444Z,7.20
2023-03-20T23:40:42.487Z,7.20
2023-03-20T23:43:10.605Z,7.20
2023-03-20T23:45:38.899Z,7.20
2023-03-20T23:48:07.319Z,7.10
2023-03-20T23:50:51.853Z,7.10
2023-03-20T23:53:21.411Z,7.10
2023-03-20T23:55:51.352Z,7.10
2023-03-20T23:58:20.547Z,7.00
